sensor_id;sensor_type;location;lat;lon;timestamp;P1;durP1;ratioP1;P2;durP2;ratioP2
13252;SDS011;6693;54.370;10.132;2023-05-21T00:00:26;6.05;;;1.10;;
13252;SDS011;6693;54.370;10.132;2023-05-21T00:01:30;5.80;;;1.00;;
13252;SDS011;6693;54.370;10.132;2023-05-21T00:02:33;4.32;;;0.95;;
13252;SDS011;6693;54.370;10.132;2023-05-21T00:03:34;5.50;;;1.02;;
13252;SDS011;6693;54.370;10.132;2023-05-21T00:04:40;4.45;;;0.77;;
13252;SDS011;6693;54.370;10.132;2023-05-21T00:05:41;6.38;;;0.93;;
13252;SDS011;6693;54.370;10.132;2023-05-21T00:06:46;5.05;;;1.30;;
13252;SDS011;6693;54.370;10.132;2023-05-21T00:07:46;6.93;;;1.23;;
13252;SDS011;6693;54.370;10.132;2023-05-21T00:08:52;4.22;;;1.00;;
13252;SDS011;6693;54.370;10.132;2023-05-21T00:09:52;4.95;;;1.23;;
13252;SDS011;6693;54.370;10.132;2023-05-21T00:10:56;4.47;;;1.05;;
13252;SDS011;6693;54.370;10.132;2023-05-21T00:11:59;6.13;;;1.33;;
13252;SDS011;6693;54.370;10.132;2023-05-21T00:13:00;4.55;;;0.93;;
13252;SDS011;6693;54.370;10.132;2023-05-21T00:14:03;5.65;;;1.30;;
13252;SDS011;6693;54.370;10.132;2023-05-21T00:15:04;7.43;;;0.95;;
13252;SDS011;6693;54.370;10.132;2023-05-21T00:16:08;4.72;;;1.15;;
13252;SDS011;6693;54.370;10.132;2023-05-21T00:17:12;4.22;;;1.00;;
13252;SDS011;6693;54.370;10.132;2023-05-21T00:18:17;4.43;;;1.00;;
13252;SDS011;6693;54.370;10.132;2023-05-21T00:19:17;5.35;;;1.10;;
13252;SDS011;6693;54.370;10.132;2023-05-21T00:20:20;5.43;;;1.52;;
13252;SDS011;6693;54.370;10.132;2023-05-21T00:21:22;6.28;;;1.48;;
13252;SDS011;6693;54.370;10.132;2023-05-21T00:22:25;3.83;;;0.90;;
13252;SDS011;6693;54.370;10.132;2023-05-21T00:23:26;5.78;;;1.20;;
13252;SDS011;6693;54.370;10.132;2023-05-21T00:24:31;5.18;;;1.63;;
13252;SDS011;6693;54.370;10.132;2023-05-21T00:25:32;4.47;;;1.20;;
13252;SDS011;6693;54.370;10.132;2023-05-21T00:26:35;5.90;;;1.30;;
13252;SDS011;6693;54.370;10.132;2023-05-21T00:27:36;5.43;;;1.30;;
13252;SDS011;6693;54.370;10.132;2023-05-21T00:28:39;4.75;;;1.10;;
13252;SDS011;6693;54.370;10.132;2023-05-21T00:29:40;4.70;;;1.08;;
13252;SDS011;6693;54.370;10.132;2023-05-21T00:30:43;6.38;;;1.50;;
13252;SDS011;6693;54.370;10.132;2023-05-21T00:31:43;5.68;;;1.27;;
13252;SDS011;6693;54.370;10.132;2023-05-21T00:32:49;6.18;;;1.25;;
13252;SDS011;6693;54.370;10.132;2023-05-21T00:33:50;4.20;;;1.13;;
13252;SDS011;6693;54.370;10.132;2023-05-21T00:34:53;6.00;;;1.20;;
13252;SDS011;6693;54.370;10.132;2023-05-21T00:35:53;4.63;;;1.02;;
13252;SDS011;6693;54.370;10.132;2023-05-21T00:36:57;4.35;;;1.00;;
13252;SDS011;6693;54.370;10.132;2023-05-21T00:37:57;5.82;;;1.02;;
13252;SDS011;6693;54.370;10.132;2023-05-21T00:39:00;4.72;;;1.10;;
13252;SDS011;6693;54.370;10.132;2023-05-21T00:40:01;4.32;;;0.98;;
13252;SDS011;6693;54.370;10.132;2023-05-21T00:41:07;5.45;;;1.23;;
13252;SDS011;6693;54.370;10.132;2023-05-21T00:42:08;6.40;;;1.10;;
13252;SDS011;6693;54.370;10.132;2023-05-21T00:43:12;4.35;;;1.20;;
13252;SDS011;6693;54.370;10.132;2023-05-21T00:44:13;4.88;;;1.10;;
13252;SDS011;6693;54.370;10.132;2023-05-21T00:45:18;7.07;;;1.20;;
13252;SDS011;6693;54.370;10.132;2023-05-21T00:46:19;7.80;;;1.13;;
13252;SDS011;6693;54.370;10.132;2023-05-21T00:47:22;5.43;;;1.27;;
13252;SDS011;6693;54.370;10.132;2023-05-21T00:48:26;5.00;;;1.27;;
13252;SDS011;6693;54.370;10.132;2023-05-21T00:49:31;5.22;;;1.08;;
13252;SDS011;6693;54.370;10.132;2023-05-21T00:50:31;4.18;;;0.90;;
13252;SDS011;6693;54.370;10.132;2023-05-21T00:51:35;6.22;;;1.23;;
13252;SDS011;6693;54.370;10.132;2023-05-21T00:52:35;5.45;;;1.20;;
13252;SDS011;6693;54.370;10.132;2023-05-21T00:53:40;5.57;;;1.23;;
13252;SDS011;6693;54.370;10.132;2023-05-21T00:54:41;5.30;;;0.90;;
13252;SDS011;6693;54.370;10.132;2023-05-21T00:55:44;4.45;;;1.05;;
13252;SDS011;6693;54.370;10.132;2023-05-21T00:56:45;5.30;;;0.95;;
13252;SDS011;6693;54.370;10.132;2023-05-21T00:57:49;4.28;;;1.00;;
13252;SDS011;6693;54.370;10.132;2023-05-21T00:58:49;6.32;;;1.10;;
13252;SDS011;6693;54.370;10.132;2023-05-21T00:59:53;5.05;;;1.23;;
13252;SDS011;6693;54.370;10.132;2023-05-21T01:00:54;5.20;;;1.08;;
13252;SDS011;6693;54.370;10.132;2023-05-21T01:01:57;4.65;;;1.10;;
13252;SDS011;6693;54.370;10.132;2023-05-21T01:03:03;4.47;;;1.17;;
13252;SDS011;6693;54.370;10.132;2023-05-21T01:04:09;5.72;;;1.08;;
13252;SDS011;6693;54.370;10.132;2023-05-21T01:05:09;3.75;;;1.00;;
13252;SDS011;6693;54.370;10.132;2023-05-21T01:06:14;5.75;;;1.20;;
13252;SDS011;6693;54.370;10.132;2023-05-21T01:07:15;4.30;;;1.05;;
13252;SDS011;6693;54.370;10.132;2023-05-21T01:08:18;4.10;;;0.90;;
13252;SDS011;6693;54.370;10.132;2023-05-21T01:09:20;5.65;;;1.10;;
13252;SDS011;6693;54.370;10.132;2023-05-21T01:10:24;4.18;;;1.17;;
13252;SDS011;6693;54.370;10.132;2023-05-21T01:11:27;4.72;;;1.10;;
13252;SDS011;6693;54.370;10.132;2023-05-21T01:12:35;5.18;;;1.23;;
13252;SDS011;6693;54.370;10.132;2023-05-21T01:13:38;5.53;;;1.27;;
13252;SDS011;6693;54.370;10.132;2023-05-21T01:14:41;4.47;;;1.05;;
13252;SDS011;6693;54.370;10.132;2023-05-21T01:15:42;5.50;;;1.20;;
13252;SDS011;6693;54.370;10.132;2023-05-21T01:16:46;5.15;;;1.38;;
13252;SDS011;6693;54.370;10.132;2023-05-21T01:17:48;4.93;;;0.98;;
13252;SDS011;6693;54.370;10.132;2023-05-21T01:18:52;3.92;;;0.82;;
13252;SDS011;6693;54.370;10.132;2023-05-21T01:19:55;4.22;;;1.10;;
13252;SDS011;6693;54.370;10.132;2023-05-21T01:20:59;5.32;;;1.20;;
13252;SDS011;6693;54.370;10.132;2023-05-21T01:22:03;4.10;;;0.90;;
13252;SDS011;6693;54.370;10.132;2023-05-21T01:23:09;5.32;;;1.02;;
13252;SDS011;6693;54.370;10.132;2023-05-21T01:24:10;5.80;;;1.63;;
13252;SDS011;6693;54.370;10.132;2023-05-21T01:25:13;3.97;;;1.20;;
13252;SDS011;6693;54.370;10.132;2023-05-21T01:26:14;5.13;;;0.90;;
13252;SDS011;6693;54.370;10.132;2023-05-21T01:27:17;5.32;;;1.10;;
13252;SDS011;6693;54.370;10.132;2023-05-21T01:28:18;4.80;;;1.20;;
13252;SDS011;6693;54.370;10.132;2023-05-21T01:29:21;7.50;;;1.15;;
13252;SDS011;6693;54.370;10.132;2023-05-21T01:30:22;4.38;;;1.13;;
13252;SDS011;6693;54.370;10.132;2023-05-21T01:31:26;5.25;;;1.38;;
13252;SDS011;6693;54.370;10.132;2023-05-21T01:32:32;5.38;;;1.20;;
13252;SDS011;6693;54.370;10.132;2023-05-21T01:33:37;5.15;;;1.17;;
13252;SDS011;6693;54.370;10.132;2023-05-21T01:34:43;5.43;;;1.23;;
13252;SDS011;6693;54.370;10.132;2023-05-21T01:36:51;4.72;;;1.00;;
13252;SDS011;6693;54.370;10.132;2023-05-21T01:39:02;6.03;;;1.15;;
13252;SDS011;6693;54.370;10.132;2023-05-21T01:40:10;5.43;;;1.20;;
13252;SDS011;6693;54.370;10.132;2023-05-21T01:41:14;5.07;;;1.10;;
13252;SDS011;6693;54.370;10.132;2023-05-21T01:42:20;5.88;;;1.33;;
13252;SDS011;6693;54.370;10.132;2023-05-21T01:43:22;5.10;;;1.13;;
13252;SDS011;6693;54.370;10.132;2023-05-21T01:44:25;7.57;;;1.42;;
13252;SDS011;6693;54.370;10.132;2023-05-21T01:45:26;4.53;;;1.13;;
13252;SDS011;6693;54.370;10.132;2023-05-21T01:46:31;5.40;;;1.70;;
13252;SDS011;6693;54.370;10.132;2023-05-21T01:48:35;6.38;;;1.25;;
13252;SDS011;6693;54.370;10.132;2023-05-21T01:49:37;5.72;;;1.23;;
13252;SDS011;6693;54.370;10.132;2023-05-21T01:50:41;7.60;;;1.83;;
13252;SDS011;6693;54.370;10.132;2023-05-21T01:52:48;5.03;;;1.10;;
13252;SDS011;6693;54.370;10.132;2023-05-21T01:53:50;4.07;;;1.10;;
13252;SDS011;6693;54.370;10.132;2023-05-21T01:54:56;6.90;;;1.15;;
13252;SDS011;6693;54.370;10.132;2023-05-21T01:55:56;6.95;;;1.33;;
13252;SDS011;6693;54.370;10.132;2023-05-21T01:56:59;5.05;;;1.48;;
13252;SDS011;6693;54.370;10.132;2023-05-21T01:58:00;4.32;;;1.33;;
13252;SDS011;6693;54.370;10.132;2023-05-21T01:59:03;6.43;;;1.50;;
13252;SDS011;6693;54.370;10.132;2023-05-21T02:00:05;4.72;;;1.15;;
13252;SDS011;6693;54.370;10.132;2023-05-21T02:01:09;6.15;;;1.52;;
13252;SDS011;6693;54.370;10.132;2023-05-21T02:02:11;6.82;;;1.50;;
13252;SDS011;6693;54.370;10.132;2023-05-21T02:03:14;5.80;;;1.20;;
13252;SDS011;6693;54.370;10.132;2023-05-21T02:04:15;5.75;;;1.50;;
13252;SDS011;6693;54.370;10.132;2023-05-21T02:05:18;4.45;;;1.10;;
13252;SDS011;6693;54.370;10.132;2023-05-21T02:06:19;5.88;;;1.30;;
13252;SDS011;6693;54.370;10.132;2023-05-21T02:07:22;5.60;;;1.10;;
13252;SDS011;6693;54.370;10.132;2023-05-21T02:08:23;5.80;;;1.27;;
13252;SDS011;6693;54.370;10.132;2023-05-21T02:09:26;6.03;;;1.20;;
13252;SDS011;6693;54.370;10.132;2023-05-21T02:10:30;5.97;;;1.48;;
13252;SDS011;6693;54.370;10.132;2023-05-21T02:11:33;5.97;;;1.27;;
13252;SDS011;6693;54.370;10.132;2023-05-21T02:12:34;5.40;;;1.23;;
13252;SDS011;6693;54.370;10.132;2023-05-21T02:13:37;5.32;;;1.42;;
13252;SDS011;6693;54.370;10.132;2023-05-21T02:14:41;5.63;;;1.52;;
13252;SDS011;6693;54.370;10.132;2023-05-21T02:15:48;6.30;;;1.42;;
13252;SDS011;6693;54.370;10.132;2023-05-21T02:16:48;6.25;;;1.42;;
13252;SDS011;6693;54.370;10.132;2023-05-21T02:17:51;5.40;;;1.20;;
13252;SDS011;6693;54.370;10.132;2023-05-21T02:18:52;4.97;;;1.15;;
13252;SDS011;6693;54.370;10.132;2023-05-21T02:19:56;5.72;;;1.40;;
13252;SDS011;6693;54.370;10.132;2023-05-21T02:20:57;7.40;;;1.17;;
13252;SDS011;6693;54.370;10.132;2023-05-21T02:22:00;5.53;;;1.52;;
13252;SDS011;6693;54.370;10.132;2023-05-21T02:23:00;5.53;;;1.48;;
13252;SDS011;6693;54.370;10.132;2023-05-21T02:24:04;4.97;;;1.40;;
13252;SDS011;6693;54.370;10.132;2023-05-21T02:25:05;5.70;;;1.30;;
13252;SDS011;6693;54.370;10.132;2023-05-21T02:26:12;8.25;;;1.40;;
13252;SDS011;6693;54.370;10.132;2023-05-21T02:27:12;5.82;;;1.30;;
13252;SDS011;6693;54.370;10.132;2023-05-21T02:28:16;5.68;;;1.33;;
13252;SDS011;6693;54.370;10.132;2023-05-21T02:29:17;4.78;;;1.40;;
13252;SDS011;6693;54.370;10.132;2023-05-21T02:30:20;5.03;;;1.40;;
13252;SDS011;6693;54.370;10.132;2023-05-21T02:31:21;8.52;;;1.30;;
13252;SDS011;6693;54.370;10.132;2023-05-21T02:32:24;5.05;;;1.30;;
13252;SDS011;6693;54.370;10.132;2023-05-21T02:33:24;6.32;;;1.60;;
13252;SDS011;6693;54.370;10.132;2023-05-21T02:34:28;5.03;;;1.38;;
13252;SDS011;6693;54.370;10.132;2023-05-21T02:36:32;6.10;;;1.45;;
13252;SDS011;6693;54.370;10.132;2023-05-21T02:37:35;6.03;;;1.50;;
13252;SDS011;6693;54.370;10.132;2023-05-21T02:38:39;5.20;;;1.60;;
13252;SDS011;6693;54.370;10.132;2023-05-21T02:39:42;5.32;;;1.25;;
13252;SDS011;6693;54.370;10.132;2023-05-21T02:40:45;7.90;;;1.50;;
13252;SDS011;6693;54.370;10.132;2023-05-21T02:41:49;6.13;;;1.50;;
13252;SDS011;6693;54.370;10.132;2023-05-21T02:42:52;8.80;;;1.63;;
13252;SDS011;6693;54.370;10.132;2023-05-21T02:43:52;6.53;;;1.58;;
13252;SDS011;6693;54.370;10.132;2023-05-21T02:44:55;6.00;;;1.58;;
13252;SDS011;6693;54.370;10.132;2023-05-21T02:45:56;4.53;;;1.38;;
13252;SDS011;6693;54.370;10.132;2023-05-21T02:46:59;6.20;;;1.50;;
13252;SDS011;6693;54.370;10.132;2023-05-21T02:48:00;7.35;;;1.52;;
13252;SDS011;6693;54.370;10.132;2023-05-21T02:49:03;7.05;;;1.80;;
13252;SDS011;6693;54.370;10.132;2023-05-21T02:50:05;7.07;;;1.92;;
13252;SDS011;6693;54.370;10.132;2023-05-21T02:51:09;7.38;;;1.90;;
13252;SDS011;6693;54.370;10.132;2023-05-21T02:52:10;6.95;;;1.83;;
13252;SDS011;6693;54.370;10.132;2023-05-21T02:53:13;6.13;;;1.40;;
13252;SDS011;6693;54.370;10.132;2023-05-21T02:54:14;6.95;;;1.90;;
13252;SDS011;6693;54.370;10.132;2023-05-21T02:55:17;8.18;;;2.00;;
13252;SDS011;6693;54.370;10.132;2023-05-21T02:56:18;6.60;;;1.90;;
13252;SDS011;6693;54.370;10.132;2023-05-21T02:57:23;6.05;;;1.73;;
13252;SDS011;6693;54.370;10.132;2023-05-21T02:58:24;6.82;;;1.60;;
13252;SDS011;6693;54.370;10.132;2023-05-21T02:59:27;8.63;;;2.03;;
13252;SDS011;6693;54.370;10.132;2023-05-21T03:00:28;6.60;;;2.08;;
13252;SDS011;6693;54.370;10.132;2023-05-21T03:01:31;6.97;;;1.90;;
13252;SDS011;6693;54.370;10.132;2023-05-21T03:02:31;7.55;;;1.80;;
13252;SDS011;6693;54.370;10.132;2023-05-21T03:03:35;6.25;;;2.15;;
13252;SDS011;6693;54.370;10.132;2023-05-21T03:04:35;8.40;;;2.10;;
13252;SDS011;6693;54.370;10.132;2023-05-21T03:05:45;6.05;;;1.63;;
13252;SDS011;6693;54.370;10.132;2023-05-21T03:06:45;7.65;;;1.92;;
13252;SDS011;6693;54.370;10.132;2023-05-21T03:07:50;6.28;;;1.83;;
13252;SDS011;6693;54.370;10.132;2023-05-21T03:08:52;7.47;;;1.73;;
13252;SDS011;6693;54.370;10.132;2023-05-21T03:09:55;7.85;;;1.83;;
13252;SDS011;6693;54.370;10.132;2023-05-21T03:10:56;6.20;;;1.70;;
13252;SDS011;6693;54.370;10.132;2023-05-21T03:11:59;7.15;;;2.03;;
13252;SDS011;6693;54.370;10.132;2023-05-21T03:13:02;7.20;;;1.90;;
13252;SDS011;6693;54.370;10.132;2023-05-21T03:14:06;7.68;;;2.15;;
13252;SDS011;6693;54.370;10.132;2023-05-21T03:15:09;7.57;;;2.20;;
13252;SDS011;6693;54.370;10.132;2023-05-21T03:16:13;8.50;;;1.90;;
13252;SDS011;6693;54.370;10.132;2023-05-21T03:17:14;6.10;;;1.85;;
13252;SDS011;6693;54.370;10.132;2023-05-21T03:18:17;7.55;;;2.00;;
13252;SDS011;6693;54.370;10.132;2023-05-21T03:19:18;9.85;;;2.03;;
13252;SDS011;6693;54.370;10.132;2023-05-21T03:20:21;7.00;;;1.90;;
13252;SDS011;6693;54.370;10.132;2023-05-21T03:21:22;7.88;;;2.22;;
13252;SDS011;6693;54.370;10.132;2023-05-21T03:22:25;7.22;;;2.30;;
13252;SDS011;6693;54.370;10.132;2023-05-21T03:23:25;7.75;;;2.40;;
13252;SDS011;6693;54.370;10.132;2023-05-21T03:24:29;8.93;;;2.22;;
13252;SDS011;6693;54.370;10.132;2023-05-21T03:25:30;6.25;;;2.03;;
13252;SDS011;6693;54.370;10.132;2023-05-21T03:26:35;5.15;;;1.98;;
13252;SDS011;6693;54.370;10.132;2023-05-21T03:27:39;9.15;;;2.40;;
13252;SDS011;6693;54.370;10.132;2023-05-21T03:28:44;8.02;;;2.28;;
13252;SDS011;6693;54.370;10.132;2023-05-21T03:29:45;7.78;;;2.58;;
13252;SDS011;6693;54.370;10.132;2023-05-21T03:30:49;10.23;;;2.60;;
13252;SDS011;6693;54.370;10.132;2023-05-21T03:31:52;8.70;;;2.63;;
13252;SDS011;6693;54.370;10.132;2023-05-21T03:32:53;8.15;;;2.10;;
13252;SDS011;6693;54.370;10.132;2023-05-21T03:33:58;7.20;;;2.42;;
13252;SDS011;6693;54.370;10.132;2023-05-21T03:34:59;7.75;;;2.33;;
13252;SDS011;6693;54.370;10.132;2023-05-21T03:36:02;8.02;;;2.55;;
13252;SDS011;6693;54.370;10.132;2023-05-21T03:37:04;7.82;;;2.10;;
13252;SDS011;6693;54.370;10.132;2023-05-21T03:38:07;8.43;;;1.95;;
13252;SDS011;6693;54.370;10.132;2023-05-21T03:39:07;9.98;;;2.75;;
13252;SDS011;6693;54.370;10.132;2023-05-21T03:40:11;8.60;;;2.60;;
13252;SDS011;6693;54.370;10.132;2023-05-21T03:41:12;7.78;;;2.35;;
13252;SDS011;6693;54.370;10.132;2023-05-21T03:42:15;6.72;;;2.50;;
13252;SDS011;6693;54.370;10.132;2023-05-21T03:43:16;8.00;;;2.22;;
13252;SDS011;6693;54.370;10.132;2023-05-21T03:44:22;8.98;;;2.75;;
13252;SDS011;6693;54.370;10.132;2023-05-21T03:45:23;11.77;;;2.60;;
13252;SDS011;6693;54.370;10.132;2023-05-21T03:46:26;9.10;;;2.22;;
13252;SDS011;6693;54.370;10.132;2023-05-21T03:47:27;8.07;;;2.53;;
13252;SDS011;6693;54.370;10.132;2023-05-21T03:48:30;7.20;;;2.67;;
13252;SDS011;6693;54.370;10.132;2023-05-21T03:49:31;8.25;;;2.35;;
13252;SDS011;6693;54.370;10.132;2023-05-21T03:50:34;8.30;;;2.70;;
13252;SDS011;6693;54.370;10.132;2023-05-21T03:51:34;8.55;;;2.45;;
13252;SDS011;6693;54.370;10.132;2023-05-21T03:52:38;8.35;;;2.55;;
13252;SDS011;6693;54.370;10.132;2023-05-21T03:53:39;7.35;;;2.72;;
13252;SDS011;6693;54.370;10.132;2023-05-21T03:54:42;7.60;;;2.38;;
13252;SDS011;6693;54.370;10.132;2023-05-21T03:55:42;8.02;;;2.55;;
13252;SDS011;6693;54.370;10.132;2023-05-21T03:56:46;7.95;;;2.65;;
13252;SDS011;6693;54.370;10.132;2023-05-21T03:57:46;6.90;;;2.50;;
13252;SDS011;6693;54.370;10.132;2023-05-21T03:58:50;7.72;;;2.42;;
13252;SDS011;6693;54.370;10.132;2023-05-21T03:59:53;8.25;;;2.95;;
13252;SDS011;6693;54.370;10.132;2023-05-21T04:00:57;8.85;;;2.75;;
13252;SDS011;6693;54.370;10.132;2023-05-21T04:02:00;8.10;;;2.67;;
13252;SDS011;6693;54.370;10.132;2023-05-21T04:03:04;6.72;;;2.40;;
13252;SDS011;6693;54.370;10.132;2023-05-21T04:04:06;7.68;;;2.42;;
13252;SDS011;6693;54.370;10.132;2023-05-21T04:05:09;11.23;;;3.00;;
13252;SDS011;6693;54.370;10.132;2023-05-21T04:06:09;8.40;;;2.53;;
13252;SDS011;6693;54.370;10.132;2023-05-21T04:07:13;6.57;;;2.40;;
13252;SDS011;6693;54.370;10.132;2023-05-21T04:08:14;9.57;;;2.85;;
13252;SDS011;6693;54.370;10.132;2023-05-21T04:09:17;10.27;;;3.00;;
13252;SDS011;6693;54.370;10.132;2023-05-21T04:10:18;8.98;;;2.80;;
13252;SDS011;6693;54.370;10.132;2023-05-21T04:11:22;8.98;;;3.05;;
13252;SDS011;6693;54.370;10.132;2023-05-21T04:12:22;7.53;;;2.50;;
13252;SDS011;6693;54.370;10.132;2023-05-21T04:13:25;9.82;;;3.05;;
13252;SDS011;6693;54.370;10.132;2023-05-21T04:14:27;9.40;;;2.70;;
13252;SDS011;6693;54.370;10.132;2023-05-21T04:15:33;9.20;;;3.22;;
13252;SDS011;6693;54.370;10.132;2023-05-21T04:16:34;10.35;;;3.40;;
13252;SDS011;6693;54.370;10.132;2023-05-21T04:17:37;10.70;;;3.20;;
13252;SDS011;6693;54.370;10.132;2023-05-21T04:18:38;10.10;;;3.30;;
13252;SDS011;6693;54.370;10.132;2023-05-21T04:19:42;10.75;;;3.28;;
13252;SDS011;6693;54.370;10.132;2023-05-21T04:20:43;10.38;;;3.20;;
13252;SDS011;6693;54.370;10.132;2023-05-21T04:21:46;8.32;;;3.38;;
13252;SDS011;6693;54.370;10.132;2023-05-21T04:22:47;7.60;;;3.03;;
13252;SDS011;6693;54.370;10.132;2023-05-21T04:23:50;9.68;;;3.13;;
13252;SDS011;6693;54.370;10.132;2023-05-21T04:24:52;10.77;;;3.28;;
13252;SDS011;6693;54.370;10.132;2023-05-21T04:25:56;8.10;;;2.90;;
13252;SDS011;6693;54.370;10.132;2023-05-21T04:26:56;9.95;;;3.00;;
13252;SDS011;6693;54.370;10.132;2023-05-21T04:28:00;10.65;;;3.63;;
13252;SDS011;6693;54.370;10.132;2023-05-21T04:29:01;8.50;;;3.10;;
13252;SDS011;6693;54.370;10.132;2023-05-21T04:30:05;9.20;;;2.78;;
13252;SDS011;6693;54.370;10.132;2023-05-21T04:32:11;8.75;;;2.58;;
13252;SDS011;6693;54.370;10.132;2023-05-21T04:33:14;8.23;;;2.78;;
13252;SDS011;6693;54.370;10.132;2023-05-21T04:34:19;9.30;;;3.00;;
13252;SDS011;6693;54.370;10.132;2023-05-21T04:35:19;7.97;;;2.55;;
13252;SDS011;6693;54.370;10.132;2023-05-21T04:36:23;11.23;;;3.03;;
13252;SDS011;6693;54.370;10.132;2023-05-21T04:37:23;9.77;;;2.70;;
13252;SDS011;6693;54.370;10.132;2023-05-21T04:38:27;9.60;;;3.03;;
13252;SDS011;6693;54.370;10.132;2023-05-21T04:39:27;8.90;;;2.95;;
13252;SDS011;6693;54.370;10.132;2023-05-21T04:40:32;7.82;;;2.75;;
13252;SDS011;6693;54.370;10.132;2023-05-21T04:41:32;9.45;;;3.53;;
13252;SDS011;6693;54.370;10.132;2023-05-21T04:42:37;7.13;;;2.55;;
13252;SDS011;6693;54.370;10.132;2023-05-21T04:43:38;9.02;;;2.63;;
13252;SDS011;6693;54.370;10.132;2023-05-21T04:44:43;8.43;;;2.90;;
13252;SDS011;6693;54.370;10.132;2023-05-21T04:45:43;8.43;;;2.60;;
13252;SDS011;6693;54.370;10.132;2023-05-21T04:46:49;12.52;;;2.83;;
13252;SDS011;6693;54.370;10.132;2023-05-21T04:47:50;10.10;;;3.17;;
13252;SDS011;6693;54.370;10.132;2023-05-21T04:48:53;9.40;;;2.72;;
13252;SDS011;6693;54.370;10.132;2023-05-21T04:49:54;9.60;;;2.63;;
13252;SDS011;6693;54.370;10.132;2023-05-21T04:50:58;8.93;;;2.88;;
13252;SDS011;6693;54.370;10.132;2023-05-21T04:51:59;9.20;;;2.63;;
13252;SDS011;6693;54.370;10.132;2023-05-21T04:53:02;7.15;;;2.63;;
13252;SDS011;6693;54.370;10.132;2023-05-21T04:54:02;9.70;;;2.88;;
13252;SDS011;6693;54.370;10.132;2023-05-21T04:55:06;7.78;;;2.58;;
13252;SDS011;6693;54.370;10.132;2023-05-21T04:57:10;8.20;;;2.55;;
13252;SDS011;6693;54.370;10.132;2023-05-21T04:58:11;8.43;;;2.65;;
13252;SDS011;6693;54.370;10.132;2023-05-21T04:59:16;7.63;;;2.33;;
13252;SDS011;6693;54.370;10.132;2023-05-21T05:00:17;6.72;;;2.45;;
13252;SDS011;6693;54.370;10.132;2023-05-21T05:01:21;8.57;;;2.50;;
13252;SDS011;6693;54.370;10.132;2023-05-21T05:02:25;7.00;;;2.53;;
13252;SDS011;6693;54.370;10.132;2023-05-21T05:03:28;9.80;;;3.05;;
13252;SDS011;6693;54.370;10.132;2023-05-21T05:04:29;7.25;;;2.55;;
13252;SDS011;6693;54.370;10.132;2023-05-21T05:05:33;8.05;;;2.83;;
13252;SDS011;6693;54.370;10.132;2023-05-21T05:06:33;7.97;;;2.80;;
13252;SDS011;6693;54.370;10.132;2023-05-21T05:07:36;10.27;;;2.80;;
13252;SDS011;6693;54.370;10.132;2023-05-21T05:08:37;7.57;;;2.67;;
13252;SDS011;6693;54.370;10.132;2023-05-21T05:09:41;11.07;;;2.88;;
13252;SDS011;6693;54.370;10.132;2023-05-21T05:10:41;9.40;;;2.75;;
13252;SDS011;6693;54.370;10.132;2023-05-21T05:11:45;6.95;;;2.55;;
13252;SDS011;6693;54.370;10.132;2023-05-21T05:12:45;11.15;;;2.95;;
13252;SDS011;6693;54.370;10.132;2023-05-21T05:13:48;8.40;;;2.95;;
13252;SDS011;6693;54.370;10.132;2023-05-21T05:14:49;8.00;;;2.78;;
13252;SDS011;6693;54.370;10.132;2023-05-21T05:15:52;11.27;;;3.22;;
13252;SDS011;6693;54.370;10.132;2023-05-21T05:16:53;11.90;;;3.00;;
13252;SDS011;6693;54.370;10.132;2023-05-21T05:18:02;8.68;;;2.67;;
13252;SDS011;6693;54.370;10.132;2023-05-21T05:19:03;10.20;;;2.78;;
13252;SDS011;6693;54.370;10.132;2023-05-21T05:20:06;8.65;;;2.78;;
13252;SDS011;6693;54.370;10.132;2023-05-21T05:21:09;10.05;;;2.95;;
13252;SDS011;6693;54.370;10.132;2023-05-21T05:22:12;7.88;;;2.50;;
13252;SDS011;6693;54.370;10.132;2023-05-21T05:23:13;7.47;;;2.70;;
13252;SDS011;6693;54.370;10.132;2023-05-21T05:24:16;13.07;;;3.10;;
13252;SDS011;6693;54.370;10.132;2023-05-21T05:25:19;6.70;;;2.53;;
13252;SDS011;6693;54.370;10.132;2023-05-21T05:26:20;7.88;;;2.85;;
13252;SDS011;6693;54.370;10.132;2023-05-21T05:27:23;6.50;;;2.28;;
13252;SDS011;6693;54.370;10.132;2023-05-21T05:28:24;10.65;;;2.40;;
13252;SDS011;6693;54.370;10.132;2023-05-21T05:29:27;9.23;;;2.83;;
13252;SDS011;6693;54.370;10.132;2023-05-21T05:30:28;8.88;;;2.50;;
13252;SDS011;6693;54.370;10.132;2023-05-21T05:31:31;9.20;;;2.63;;
13252;SDS011;6693;54.370;10.132;2023-05-21T05:32:31;12.35;;;2.63;;
13252;SDS011;6693;54.370;10.132;2023-05-21T05:33:37;6.47;;;2.75;;
13252;SDS011;6693;54.370;10.132;2023-05-21T05:34:38;9.75;;;2.85;;
13252;SDS011;6693;54.370;10.132;2023-05-21T05:35:41;9.30;;;2.50;;
13252;SDS011;6693;54.370;10.132;2023-05-21T05:36:42;8.70;;;2.63;;
13252;SDS011;6693;54.370;10.132;2023-05-21T05:37:45;11.05;;;2.67;;
13252;SDS011;6693;54.370;10.132;2023-05-21T05:38:46;11.23;;;2.60;;
13252;SDS011;6693;54.370;10.132;2023-05-21T05:39:49;8.30;;;2.55;;
13252;SDS011;6693;54.370;10.132;2023-05-21T05:40:49;9.23;;;2.88;;
13252;SDS011;6693;54.370;10.132;2023-05-21T05:41:52;9.45;;;2.55;;
13252;SDS011;6693;54.370;10.132;2023-05-21T05:42:53;7.75;;;2.72;;
13252;SDS011;6693;54.370;10.132;2023-05-21T05:43:56;9.65;;;2.80;;
13252;SDS011;6693;54.370;10.132;2023-05-21T05:44:57;8.90;;;2.70;;
13252;SDS011;6693;54.370;10.132;2023-05-21T05:46:00;9.30;;;2.45;;
13252;SDS011;6693;54.370;10.132;2023-05-21T05:47:01;10.70;;;2.47;;
13252;SDS011;6693;54.370;10.132;2023-05-21T05:48:08;7.57;;;2.45;;
13252;SDS011;6693;54.370;10.132;2023-05-21T05:49:11;10.40;;;2.78;;
13252;SDS011;6693;54.370;10.132;2023-05-21T05:50:15;7.45;;;2.65;;
13252;SDS011;6693;54.370;10.132;2023-05-21T05:51:16;9.27;;;2.92;;
13252;SDS011;6693;54.370;10.132;2023-05-21T05:52:19;11.77;;;3.08;;
13252;SDS011;6693;54.370;10.132;2023-05-21T05:53:20;9.07;;;3.25;;
13252;SDS011;6693;54.370;10.132;2023-05-21T05:54:23;8.93;;;2.67;;
13252;SDS011;6693;54.370;10.132;2023-05-21T05:55:24;7.50;;;2.83;;
13252;SDS011;6693;54.370;10.132;2023-05-21T05:56:27;10.63;;;2.65;;
13252;SDS011;6693;54.370;10.132;2023-05-21T05:57:27;10.10;;;2.65;;
13252;SDS011;6693;54.370;10.132;2023-05-21T05:58:31;8.82;;;2.88;;
13252;SDS011;6693;54.370;10.132;2023-05-21T05:59:32;7.25;;;3.00;;
13252;SDS011;6693;54.370;10.132;2023-05-21T06:00:35;8.75;;;2.92;;
13252;SDS011;6693;54.370;10.132;2023-05-21T06:01:36;12.02;;;3.00;;
13252;SDS011;6693;54.370;10.132;2023-05-21T06:02:39;9.43;;;2.70;;
13252;SDS011;6693;54.370;10.132;2023-05-21T06:03:39;9.18;;;2.63;;
13252;SDS011;6693;54.370;10.132;2023-05-21T06:04:45;10.73;;;3.00;;
13252;SDS011;6693;54.370;10.132;2023-05-21T06:05:46;10.23;;;3.00;;
13252;SDS011;6693;54.370;10.132;2023-05-21T06:06:50;9.02;;;2.75;;
13252;SDS011;6693;54.370;10.132;2023-05-21T06:07:51;9.73;;;2.58;;
13252;SDS011;6693;54.370;10.132;2023-05-21T06:08:54;9.48;;;2.50;;
13252;SDS011;6693;54.370;10.132;2023-05-21T06:09:55;8.43;;;2.75;;
13252;SDS011;6693;54.370;10.132;2023-05-21T06:10:58;11.25;;;2.80;;
13252;SDS011;6693;54.370;10.132;2023-05-21T06:11:59;10.95;;;3.05;;
13252;SDS011;6693;54.370;10.132;2023-05-21T06:13:02;9.32;;;2.90;;
13252;SDS011;6693;54.370;10.132;2023-05-21T06:14:03;8.27;;;3.15;;
13252;SDS011;6693;54.370;10.132;2023-05-21T06:15:06;8.80;;;2.92;;
13252;SDS011;6693;54.370;10.132;2023-05-21T06:16:08;8.10;;;2.55;;
13252;SDS011;6693;54.370;10.132;2023-05-21T06:17:11;8.88;;;2.90;;
13252;SDS011;6693;54.370;10.132;2023-05-21T06:18:12;8.80;;;3.00;;
13252;SDS011;6693;54.370;10.132;2023-05-21T06:19:15;8.13;;;2.80;;
13252;SDS011;6693;54.370;10.132;2023-05-21T06:20:18;8.15;;;2.85;;
13252;SDS011;6693;54.370;10.132;2023-05-21T06:21:21;7.68;;;2.75;;
13252;SDS011;6693;54.370;10.132;2023-05-21T06:22:22;9.32;;;2.90;;
13252;SDS011;6693;54.370;10.132;2023-05-21T06:23:25;9.60;;;3.20;;